Time;durP1;ratioP1;P1;durP2;ratioP2;P2;SDS_P1;SDS_P2;PMS_P1;PMS_P2;Temp;Humidity;BMP_temperature;BMP_pressure;BME280_temperature;BME280_humidity;BME280_pressure;Samples;Min_cycle;Max_cycle;Signal;HPM_P1;HPM_P2
2022/10/26 00:01:15;;;;;;;46.00;26.92;;;;;;;;;;5077493;28;20048;-78
2022/10/26 00:04:00;;;;;;;47.08;26.58;;;;;;;;;;5083664;28;20044;-79
2022/10/26 00:06:46;;;;;;;55.58;28.77;;;;;;;;;;5083651;28;20040;-78
2022/10/26 00:09:31;;;;;;;40.70;22.50;;;;;;;;;;5083208;28;20053;-79
2022/10/26 00:12:17;;;;;;;45.40;24.85;;;;;;;;;;5083292;28;20040;-80
2022/10/26 00:15:03;;;;;;;35.03;20.63;;;;;;;;;;5076114;28;20468;-80
2022/10/26 00:17:49;;;;;;;31.98;17.98;;;;;;;;;;5082433;28;20040;-79
2022/10/26 00:20:35;;;;;;;30.45;16.75;;;;;;;;;;5083060;28;20037;-80
2022/10/26 00:23:23;;;;;;;33.35;16.85;;;;;;;;;;5084583;28;20044;-80
2022/10/26 00:26:08;;;;;;;35.63;16.38;;;;;;;;;;5083631;28;20044;-81
2022/10/26 00:28:56;;;;;;;30.05;15.95;;;;;;;;;;5082548;28;20455;-79
2022/10/26 00:31:45;;;;;;;27.17;15.85;;;;;;;;;;5082159;28;20475;-80
2022/10/26 00:34:31;;;;;;;30.48;16.45;;;;;;;;;;5084055;28;20045;-79
2022/10/26 00:37:16;;;;;;;28.20;15.85;;;;;;;;;;5085045;28;20041;-80
2022/10/26 00:40:02;;;;;;;24.60;13.77;;;;;;;;;;5076672;28;20044;-81
2022/10/26 00:42:47;;;;;;;26.35;13.25;;;;;;;;;;5076430;28;20048;-79
2022/10/26 00:45:33;;;;;;;30.55;15.52;;;;;;;;;;5082509;28;20040;-79
2022/10/26 00:48:25;;;;;;;29.48;17.30;;;;;;;;;;5082793;28;20040;-80
2022/10/26 00:51:27;;;;;;;33.08;18.48;;;;;;;;;;5075977;28;20041;-80
2022/10/26 00:54:19;;;;;;;31.67;17.88;;;;;;;;;;5082752;28;20379;-79
2022/10/26 00:57:05;;;;;;;31.70;17.58;;;;;;;;;;5082643;28;20044;-81
2022/10/26 00:59:53;;;;;;;33.65;17.98;;;;;;;;;;5075486;28;20036;-80
2022/10/26 01:02:38;;;;;;;41.15;20.15;;;;;;;;;;5082514;28;20044;-80
2022/10/26 01:05:25;;;;;;;44.55;25.65;;;;;;;;;;5081272;28;20387;-81
2022/10/26 01:08:13;;;;;;;43.00;24.27;;;;;;;;;;5078047;28;20040;-79
2022/10/26 01:10:59;;;;;;;51.65;26.73;;;;;;;;;;5082433;28;20044;-79
2022/10/26 01:13:45;;;;;;;66.10;36.42;;;;;;;;;;5081933;28;20048;-81
2022/10/26 01:16:33;;;;;;;44.58;25.10;;;;;;;;;;5082389;28;20391;-81
2022/10/26 01:19:51;;;;;;;54.08;29.83;;;;;;;;;;5081851;28;20036;-80
2022/10/26 01:22:59;;;;;;;39.80;23.67;;;;;;;;;;5081936;28;20396;-80
2022/10/26 01:26:11;;;;;;;34.95;21.10;;;;;;;;;;5082192;28;20162;-80
2022/10/26 01:29:14;;;;;;;34.80;20.48;;;;;;;;;;5082165;28;20048;-81
2022/10/26 01:32:09;;;;;;;32.65;19.45;;;;;;;;;;5074564;28;20036;-81
2022/10/26 01:35:07;;;;;;;36.10;17.98;;;;;;;;;;5075151;28;20041;-81
2022/10/26 01:38:03;;;;;;;34.08;17.75;;;;;;;;;;5075417;28;20040;-80
2022/10/26 01:41:22;;;;;;;28.85;17.25;;;;;;;;;;5080490;28;20483;-82
2022/10/26 01:44:19;;;;;;;32.17;16.33;;;;;;;;;;5081558;28;20471;-79
2022/10/26 01:47:06;;;;;;;27.20;16.15;;;;;;;;;;5074742;28;20044;-81
2022/10/26 01:49:55;;;;;;;28.33;14.82;;;;;;;;;;5079944;28;20048;-80
2022/10/26 01:52:40;;;;;;;28.73;14.43;;;;;;;;;;5083243;28;20040;-80
2022/10/26 01:55:42;;;;;;;24.20;14.13;;;;;;;;;;5074217;28;20045;-80
2022/10/26 01:58:49;;;;;;;28.15;13.95;;;;;;;;;;5074918;28;20045;-81
2022/10/26 02:01:52;;;;;;;25.20;12.93;;;;;;;;;;5074579;28;20382;-81
2022/10/26 02:04:58;;;;;;;26.00;13.25;;;;;;;;;;5074662;28;20040;-81
2022/10/26 02:08:18;;;;;;;20.10;11.80;;;;;;;;;;5080702;28;20044;-81
2022/10/26 02:11:18;;;;;;;29.58;14.70;;;;;;;;;;5081076;28;20036;-82
2022/10/26 02:14:30;;;;;;;30.02;16.20;;;;;;;;;;5081082;28;20040;-80
2022/10/26 02:17:25;;;;;;;34.58;17.42;;;;;;;;;;5073480;28;20040;-82
2022/10/26 02:20:22;;;;;;;31.95;18.95;;;;;;;;;;5074426;28;20048;-81
2022/10/26 02:23:09;;;;;;;33.50;16.90;;;;;;;;;;5080449;28;20036;-81
2022/10/26 02:25:59;;;;;;;27.38;16.42;;;;;;;;;;5080961;28;20040;-82
2022/10/26 02:28:49;;;;;;;30.35;17.23;;;;;;;;;;5074096;28;20049;-80
2022/10/26 02:31:36;;;;;;;31.77;18.55;;;;;;;;;;5080538;28;20048;-81
2022/10/26 02:34:26;;;;;;;32.55;17.83;;;;;;;;;;5081515;28;20044;-81
2022/10/26 02:37:15;;;;;;;27.52;16.70;;;;;;;;;;5080809;28;20052;-80
2022/10/26 02:40:03;;;;;;;31.60;17.05;;;;;;;;;;5080651;28;20040;-80
2022/10/26 02:42:51;;;;;;;30.85;16.83;;;;;;;;;;5073526;28;20048;-80
2022/10/26 02:45:45;;;;;;;33.63;17.77;;;;;;;;;;5081138;28;20049;-80
2022/10/26 02:48:31;;;;;;;29.88;18.10;;;;;;;;;;5080586;28;20459;-80
2022/10/26 02:51:24;;;;;;;32.05;18.58;;;;;;;;;;5073544;28;20391;-80
2022/10/26 02:54:12;;;;;;;31.50;18.50;;;;;;;;;;5078966;28;20045;-79
2022/10/26 02:57:04;;;;;;;31.23;18.23;;;;;;;;;;5080347;28;20036;-81
2022/10/26 02:59:52;;;;;;;33.85;19.13;;;;;;;;;;5073752;28;20380;-80
2022/10/26 03:02:37;;;;;;;33.08;18.67;;;;;;;;;;5073810;28;20040;-81
2022/10/26 03:05:26;;;;;;;36.05;18.08;;;;;;;;;;5073154;28;20048;-80
2022/10/26 03:08:10;;;;;;;36.80;17.77;;;;;;;;;;5080398;28;20472;-80
2022/10/26 03:10:56;;;;;;;32.22;18.52;;;;;;;;;;5080127;28;20048;-81
2022/10/26 03:13:42;;;;;;;33.53;17.88;;;;;;;;;;5074186;28;20049;-80
2022/10/26 03:16:27;;;;;;;45.47;22.38;;;;;;;;;;5081322;28;20376;-80
2022/10/26 03:19:13;;;;;;;34.65;20.15;;;;;;;;;;5083924;28;20048;-80
2022/10/26 03:21:58;;;;;;;34.50;20.05;;;;;;;;;;5076362;28;20041;-80
2022/10/26 03:24:44;;;;;;;44.78;20.38;;;;;;;;;;5079853;28;20044;-79
2022/10/26 03:27:30;;;;;;;38.35;20.17;;;;;;;;;;5073221;28;20045;-79
2022/10/26 03:30:15;;;;;;;36.92;20.02;;;;;;;;;;5073673;28;20045;-80
2022/10/26 03:33:01;;;;;;;33.03;18.60;;;;;;;;;;5079972;28;20049;-79
2022/10/26 03:35:53;;;;;;;43.72;20.00;;;;;;;;;;5079731;28;20036;-82
2022/10/26 03:38:38;;;;;;;39.72;20.25;;;;;;;;;;5073361;28;20037;-81
2022/10/26 03:41:23;;;;;;;48.55;20.65;;;;;;;;;;5079765;28;20044;-80
2022/10/26 03:44:09;;;;;;;56.20;22.23;;;;;;;;;;5073604;28;20040;-80
2022/10/26 03:46:54;;;;;;;66.47;23.20;;;;;;;;;;5071770;28;20085;-80
2022/10/26 03:49:39;;;;;;;119.80;22.17;;;;;;;;;;5078791;28;20048;-81
2022/10/26 03:52:25;;;;;;;82.45;24.30;;;;;;;;;;5073040;28;20036;-80
2022/10/26 03:55:11;;;;;;;103.00;24.23;;;;;;;;;;5079364;28;20045;-82
2022/10/26 03:58:12;;;;;;;57.92;22.48;;;;;;;;;;5074889;28;20040;-81
2022/10/26 04:01:08;;;;;;;77.05;23.02;;;;;;;;;;5069913;28;20041;-81
2022/10/26 04:03:53;;;;;;;62.28;21.83;;;;;;;;;;5053608;28;20041;-79
2022/10/26 04:06:38;;;;;;;445.75;160.27;;;;;;;;;;5067620;28;20032;-80
2022/10/26 04:09:24;;;;;;;339.42;130.57;;;;;;;;;;5077127;28;20040;-80
2022/10/26 04:12:10;;;;;;;223.43;83.32;;;;;;;;;;5083469;28;20044;-81
2022/10/26 04:14:58;;;;;;;181.88;66.35;;;;;;;;;;5083327;28;20344;-81
2022/10/26 04:17:45;;;;;;;156.52;58.40;;;;;;;;;;5078900;28;20044;-81
2022/10/26 04:20:32;;;;;;;124.65;47.97;;;;;;;;;;5076191;28;20036;-81
2022/10/26 04:23:18;;;;;;;96.10;40.53;;;;;;;;;;5083131;28;20040;-80
2022/10/26 04:26:06;;;;;;;105.05;43.10;;;;;;;;;;5083012;28;20460;-80
2022/10/26 04:28:51;;;;;;;145.63;46.13;;;;;;;;;;5097015;28;20040;-79
2022/10/26 04:31:36;;;;;;;118.20;40.88;;;;;;;;;;5092649;28;20563;-80
2022/10/26 04:34:21;;;;;;;108.63;39.40;;;;;;;;;;5072279;28;20044;-80
2022/10/26 04:37:07;;;;;;;100.82;39.42;;;;;;;;;;5082759;28;20040;-80
2022/10/26 04:39:53;;;;;;;98.40;37.88;;;;;;;;;;5076285;28;20136;-81
2022/10/26 04:42:45;;;;;;;103.90;37.15;;;;;;;;;;5075857;28;20048;-81
2022/10/26 04:45:31;;;;;;;98.45;36.30;;;;;;;;;;5079093;28;20048;-79
2022/10/26 04:48:16;;;;;;;111.35;37.10;;;;;;;;;;5076065;28;20040;-80
2022/10/26 04:51:02;;;;;;;101.53;36.28;;;;;;;;;;5076211;28;20048;-79
2022/10/26 04:53:48;;;;;;;89.45;31.17;;;;;;;;;;5076296;28;20044;-81
2022/10/26 04:56:33;;;;;;;112.32;30.00;;;;;;;;;;5082601;28;20044;-78
2022/10/26 04:59:18;;;;;;;77.32;29.02;;;;;;;;;;5064400;28;20040;-78
2022/10/26 05:02:03;;;;;;;123.40;42.60;;;;;;;;;;5047073;28;20045;-83
2022/10/26 05:04:49;;;;;;;197.13;98.32;;;;;;;;;;5062655;28;20045;-82
2022/10/26 05:07:35;;;;;;;179.88;75.38;;;;;;;;;;5062380;28;20476;-82
2022/10/26 05:10:20;;;;;;;117.60;39.42;;;;;;;;;;5061866;28;20037;-81
2022/10/26 05:13:06;;;;;;;104.97;41.00;;;;;;;;;;5065550;28;20040;-80
2022/10/26 05:15:53;;;;;;;93.70;39.22;;;;;;;;;;5096206;28;20451;-80
2022/10/26 05:18:38;;;;;;;83.30;28.60;;;;;;;;;;5080890;28;20037;-81
2022/10/26 05:21:23;;;;;;;76.22;24.73;;;;;;;;;;5074624;28;20471;-80
2022/10/26 05:24:09;;;;;;;108.93;25.20;;;;;;;;;;5080811;28;20041;-80
2022/10/26 05:26:54;;;;;;;81.10;24.80;;;;;;;;;;5074968;28;20036;-81
2022/10/26 05:29:40;;;;;;;93.82;28.73;;;;;;;;;;5081803;28;20036;-80
2022/10/26 05:32:26;;;;;;;87.63;27.15;;;;;;;;;;5081625;28;20375;-81
2022/10/26 05:35:11;;;;;;;115.78;26.52;;;;;;;;;;5075149;28;20041;-81
2022/10/26 05:37:58;;;;;;;83.32;26.83;;;;;;;;;;5074958;28;20044;-81
2022/10/26 05:40:51;;;;;;;153.13;26.95;;;;;;;;;;5082067;28;20460;-81
2022/10/26 05:43:36;;;;;;;65.63;26.27;;;;;;;;;;5082155;28;20064;-80
2022/10/26 05:46:21;;;;;;;69.22;24.17;;;;;;;;;;5081515;28;20044;-81
2022/10/26 05:49:07;;;;;;;104.75;34.28;;;;;;;;;;5081977;28;20044;-80
2022/10/26 05:51:53;;;;;;;122.43;38.28;;;;;;;;;;5074499;28;20052;-81
2022/10/26 05:54:38;;;;;;;99.15;30.88;;;;;;;;;;5080512;28;20135;-81
2022/10/26 05:57:23;;;;;;;89.88;31.77;;;;;;;;;;5081501;28;20403;-80
2022/10/26 06:00:18;;;;;;;148.30;34.05;;;;;;;;;;5081717;28;20036;-81
2022/10/26 06:03:14;;;;;;;128.48;37.20;;;;;;;;;;5078801;28;20048;-81
2022/10/26 06:06:00;;;;;;;123.85;38.05;;;;;;;;;;5080934;28;20048;-81
2022/10/26 06:08:46;;;;;;;151.00;39.08;;;;;;;;;;5074356;28;20049;-82
2022/10/26 06:11:31;;;;;;;128.35;38.85;;;;;;;;;;5084153;28;20375;-81
2022/10/26 06:14:17;;;;;;;107.80;33.60;;;;;;;;;;5081180;28;20040;-81
2022/10/26 06:17:20;;;;;;;72.38;30.40;;;;;;;;;;5074192;28;20037;-82
2022/10/26 06:20:35;;;;;;;67.50;28.70;;;;;;;;;;5080747;28;20036;-81
2022/10/26 06:23:57;;;;;;;79.55;29.50;;;;;;;;;;5074439;28;20375;-81
2022/10/26 06:27:12;;;;;;;94.88;32.28;;;;;;;;;;5073711;28;20048;-82
2022/10/26 06:30:00;;;;;;;;;;;;;;;;;;5073876;28;20040;-81
2022/10/26 06:32:46;;;;;;;95.78;35.22;;;;;;;;;;5080924;28;19908;-81
2022/10/26 06:35:42;;;;;;;77.57;35.20;;;;;;;;;;5073616;28;20040;-81
2022/10/26 06:38:30;;;;;;;87.47;32.83;;;;;;;;;;5074128;28;20459;-82
2022/10/26 06:41:17;;;;;;;62.00;29.85;;;;;;;;;;5080229;28;20048;-82
2022/10/26 06:44:04;;;;;;;73.38;27.17;;;;;;;;;;5074493;28;20044;-82
2022/10/26 06:46:49;;;;;;;68.15;28.17;;;;;;;;;;5081001;28;20037;-82
2022/10/26 06:49:50;;;;;;;67.97;24.52;;;;;;;;;;5073680;28;20044;-83
2022/10/26 06:52:53;;;;;;;69.38;28.83;;;;;;;;;;5079663;28;20078;-82
2022/10/26 06:55:41;;;;;;;79.20;25.00;;;;;;;;;;5083897;28;20044;-83
2022/10/26 06:58:32;;;;;;;88.25;20.23;;;;;;;;;;5073607;28;20467;-81
2022/10/26 07:01:18;;;;;;;61.55;21.15;;;;;;;;;;5073856;28;20382;-82
2022/10/26 07:04:03;;;;;;;68.13;25.35;;;;;;;;;;5072876;28;20037;-82
2022/10/26 07:06:49;;;;;;;96.25;32.67;;;;;;;;;;5080027;28;20378;-82
2022/10/26 07:09:34;;;;;;;95.60;33.38;;;;;;;;;;5073192;28;20044;-80
2022/10/26 07:12:20;;;;;;;73.97;31.30;;;;;;;;;;5073709;28;20040;-80
2022/10/26 07:15:09;;;;;;;101.57;30.50;;;;;;;;;;5073778;28;20379;-80
2022/10/26 07:17:54;;;;;;;71.97;29.73;;;;;;;;;;5079796;28;20041;-80
2022/10/26 07:20:40;;;;;;;65.07;29.50;;;;;;;;;;5080080;28;20463;-80
2022/10/26 07:23:25;;;;;;;98.50;34.60;;;;;;;;;;5079966;28;20040;-82
2022/10/26 07:26:11;;;;;;;92.72;35.38;;;;;;;;;;5080652;28;20036;-80
2022/10/26 07:28:56;;;;;;;84.15;35.17;;;;;;;;;;5079619;28;20045;-80
2022/10/26 07:31:50;;;;;;;89.25;36.25;;;;;;;;;;5073485;28;20383;-78
2022/10/26 07:34:34;;;;;;;106.82;39.38;;;;;;;;;;5080648;28;20060;-78
2022/10/26 07:37:20;;;;;;;93.47;39.00;;;;;;;;;;5081387;28;20044;-80
2022/10/26 07:40:06;;;;;;;86.05;38.05;;;;;;;;;;5076016;28;20036;-79
2022/10/26 07:42:56;;;;;;;96.50;40.33;;;;;;;;;;5084671;28;20029;-80
2022/10/26 07:45:41;;;;;;;96.78;41.80;;;;;;;;;;5083229;28;20040;-79
2022/10/26 07:48:26;;;;;;;96.35;41.72;;;;;;;;;;5084173;28;20048;-78
2022/10/26 07:51:12;;;;;;;99.38;42.25;;;;;;;;;;5076763;28;20048;-79
2022/10/26 07:53:57;;;;;;;84.57;36.75;;;;;;;;;;5077390;28;20040;-80
2022/10/26 07:56:43;;;;;;;77.07;33.72;;;;;;;;;;5077428;28;20033;-79
2022/10/26 07:59:29;;;;;;;76.35;35.75;;;;;;;;;;5083397;28;20040;-79
2022/10/26 08:02:14;;;;;;;83.15;36.85;;;;;;;;;;5076800;28;20041;-82
2022/10/26 08:05:00;;;;;;;72.68;34.60;;;;;;;;;;5083601;28;20046;-81
2022/10/26 08:07:45;;;;;;;71.82;34.80;;;;;;;;;;5076874;28;20052;-80
2022/10/26 08:10:30;;;;;;;71.07;33.00;;;;;;;;;;5077245;28;20045;-81
2022/10/26 08:13:16;;;;;;;70.70;32.65;;;;;;;;;;5083539;28;20036;-81
2022/10/26 08:16:04;;;;;;;58.72;31.05;;;;;;;;;;5077085;28;20044;-82
2022/10/26 08:18:50;;;;;;;53.88;26.45;;;;;;;;;;5076457;28;20036;-80
2022/10/26 08:21:35;;;;;;;52.95;27.17;;;;;;;;;;5086815;28;20037;-82
2022/10/26 08:24:21;;;;;;;57.85;27.38;;;;;;;;;;5083676;28;20041;-81
2022/10/26 08:27:06;;;;;;;55.17;27.33;;;;;;;;;;5076340;28;20044;-80
2022/10/26 08:29:52;;;;;;;49.85;26.85;;;;;;;;;;5083281;28;20044;-80
2022/10/26 08:32:38;;;;;;;53.35;27.83;;;;;;;;;;5083136;28;20379;-81
2022/10/26 08:35:23;;;;;;;55.45;27.73;;;;;;;;;;5083721;28;20052;-81
2022/10/26 08:38:09;;;;;;;51.22;25.40;;;;;;;;;;5076506;28;20032;-81
2022/10/26 08:40:56;;;;;;;35.50;21.10;;;;;;;;;;5077033;28;20036;-79
2022/10/26 08:43:44;;;;;;;36.60;20.60;;;;;;;;;;5087861;28;20040;-80
2022/10/26 08:46:36;;;;;;;42.50;23.67;;;;;;;;;;5077381;28;20052;-80
2022/10/26 08:49:45;;;;;;;42.42;21.27;;;;;;;;;;5076282;28;20460;-81
2022/10/26 08:53:02;;;;;;;36.97;18.05;;;;;;;;;;5073643;28;20048;-80
2022/10/26 08:55:57;;;;;;;32.08;18.10;;;;;;;;;;5082741;28;20036;-81
2022/10/26 08:58:48;;;;;;;35.10;18.02;;;;;;;;;;5082649;28;20049;-80
2022/10/26 09:01:34;;;;;;;31.98;18.23;;;;;;;;;;5082418;28;20044;-79
2022/10/26 09:04:28;;;;;;;29.10;17.45;;;;;;;;;;5085748;28;20052;-78
2022/10/26 09:07:22;;;;;;;33.60;16.77;;;;;;;;;;5076553;28;20435;-79
2022/10/26 09:10:21;;;;;;;;;;;;;;;;;;5082969;28;20044;-80
2022/10/26 09:13:31;;;;;;;25.60;13.90;;;;;;;;;;5077874;28;19908;-79
2022/10/26 09:16:30;;;;;;;30.83;14.60;;;;;;;;;;5085630;28;20044;-80
2022/10/26 09:19:28;;;;;;;27.00;14.07;;;;;;;;;;5086502;28;20044;-80
2022/10/26 09:22:14;;;;;;;24.48;14.82;;;;;;;;;;5078923;28;20044;-78
2022/10/26 09:25:11;;;;;;;24.38;14.57;;;;;;;;;;5086370;28;20052;-80
2022/10/26 09:28:00;;;;;;;22.75;15.00;;;;;;;;;;5085946;28;20116;-79
2022/10/26 09:30:46;;;;;;;21.65;13.40;;;;;;;;;;5078502;28;20479;-79
2022/10/26 09:33:38;;;;;;;22.05;14.40;;;;;;;;;;5085095;28;20040;-79
2022/10/26 09:36:23;;;;;;;20.67;13.20;;;;;;;;;;5074746;28;20036;-80
2022/10/26 09:39:21;;;;;;;22.08;13.18;;;;;;;;;;5082136;28;20391;-78
2022/10/26 09:42:17;;;;;;;28.05;13.50;;;;;;;;;;5074908;28;20040;-77
2022/10/26 09:45:13;;;;;;;22.17;13.40;;;;;;;;;;5075179;28;20033;-79
2022/10/26 09:48:10;;;;;;;22.13;13.95;;;;;;;;;;5083361;28;20048;-79
2022/10/26 09:50:56;;;;;;;19.17;13.18;;;;;;;;;;5076917;28;20371;-79
2022/10/26 09:53:42;;;;;;;25.17;13.38;;;;;;;;;;5081763;28;20045;-78
2022/10/26 09:56:29;;;;;;;21.45;13.05;;;;;;;;;;5074638;28;20036;-78
2022/10/26 09:59:19;;;;;;;24.27;12.77;;;;;;;;;;5081744;28;20044;-78
2022/10/26 10:02:36;;;;;;;17.95;12.63;;;;;;;;;;5081650;28;20044;-80
2022/10/26 10:05:28;;;;;;;21.33;11.63;;;;;;;;;;5081380;28;20045;-80
2022/10/26 10:08:22;;;;;;;20.23;12.85;;;;;;;;;;5074674;28;20036;-77
2022/10/26 10:11:11;;;;;;;;;;;;;;;;;;5074881;28;20044;-79
2022/10/26 10:14:08;;;;;;;16.80;9.95;;;;;;;;;;5081261;28;20351;-81
2022/10/26 10:17:02;;;;;;;18.55;9.10;;;;;;;;;;5074700;28;20041;-79
2022/10/26 10:19:48;;;;;;;12.93;8.80;;;;;;;;;;5074343;28;20368;-78
2022/10/26 10:22:33;;;;;;;13.02;9.15;;;;;;;;;;5074191;28;20036;-79
2022/10/26 10:25:30;;;;;;;16.45;8.40;;;;;;;;;;5080588;28;20040;-78
2022/10/26 10:28:25;;;;;;;12.93;8.40;;;;;;;;;;5080394;28;20036;-79
2022/10/26 10:31:22;;;;;;;16.50;8.73;;;;;;;;;;5082440;28;20049;-79
2022/10/26 10:34:16;;;;;;;15.10;8.00;;;;;;;;;;5080203;28;20040;-78
2022/10/26 10:37:01;;;;;;;13.20;7.10;;;;;;;;;;5081106;28;20089;-79
2022/10/26 10:39:47;;;;;;;11.98;7.00;;;;;;;;;;5080405;28;20040;-79
2022/10/26 10:42:35;;;;;;;10.70;5.55;;;;;;;;;;5073696;28;20032;-80
2022/10/26 10:45:23;;;;;;;13.15;5.53;;;;;;;;;;5080522;28;20044;-78
2022/10/26 10:48:12;;;;;;;9.63;5.80;;;;;;;;;;5080390;28;20036;-78
2022/10/26 10:51:11;;;;;;;14.65;7.65;;;;;;;;;;5076552;28;20045;-80
2022/10/26 10:53:57;;;;;;;21.65;12.45;;;;;;;;;;5080433;28;20040;-81
2022/10/26 10:56:53;;;;;;;18.77;11.27;;;;;;;;;;5080465;28;20037;-81
2022/10/26 10:59:51;;;;;;;26.80;13.63;;;;;;;;;;5080273;28;20375;-80
2022/10/26 11:02:45;;;;;;;19.55;10.05;;;;;;;;;;5080316;28;20040;-79
2022/10/26 11:05:34;;;;;;;;;;;;;;;;;;5081265;28;20040;-78
2022/10/26 11:08:27;;;;;;;14.18;7.95;;;;;;;;;;5079130;28;19908;-79
2022/10/26 11:11:20;;;;;;;14.88;6.97;;;;;;;;;;5080423;28;20045;-79
2022/10/26 11:14:29;;;;;;;13.40;6.93;;;;;;;;;;5071652;28;20049;-78
2022/10/26 11:17:21;;;;;;;12.77;7.10;;;;;;;;;;5073072;28;20040;-78
2022/10/26 11:20:19;;;;;;;7.47;4.90;;;;;;;;;;5079775;28;20036;-80
2022/10/26 11:23:18;;;;;;;6.35;4.25;;;;;;;;;;5081203;28;20048;-79
2022/10/26 11:26:11;;;;;;;7.28;3.70;;;;;;;;;;5079332;28;20379;-79
2022/10/26 11:29:10;;;;;;;5.63;4.18;;;;;;;;;;5060064;28;20037;-79
2022/10/26 11:32:04;;;;;;;5.75;3.58;;;;;;;;;;5068069;28;20037;-79
2022/10/26 11:35:27;;;;;;;8.55;3.90;;;;;;;;;;5084368;28;20387;-79
2022/10/26 11:38:20;;;;;;;6.45;4.05;;;;;;;;;;5077697;28;20048;-81
2022/10/26 11:41:18;;;;;;;14.90;5.25;;;;;;;;;;5073753;28;20049;-80
2022/10/26 11:44:29;;;;;;;11.13;5.22;;;;;;;;;;5092933;28;20044;-79
2022/10/26 11:47:33;;;;;;;4.43;3.55;;;;;;;;;;5097991;28;20474;-79
2022/10/26 11:50:23;;;;;;;10.18;4.28;;;;;;;;;;5096962;28;20036;-78
2022/10/26 11:53:13;;;;;;;8.50;4.40;;;;;;;;;;5100305;28;20056;-79
2022/10/26 11:55:59;;;;;;;12.77;4.90;;;;;;;;;;5059720;28;20040;-78
2022/10/26 11:58:44;;;;;;;9.07;4.30;;;;;;;;;;5097853;28;20043;-79
2022/10/26 12:01:32;;;;;;;8.38;4.10;;;;;;;;;;5086718;28;20041;-80
2022/10/26 12:04:21;;;;;;;8.07;4.57;;;;;;;;;;5074947;28;20464;-82
2022/10/26 12:07:20;;;;;;;6.78;4.30;;;;;;;;;;5072237;28;20040;-77
2022/10/26 12:10:13;;;;;;;8.10;4.43;;;;;;;;;;5052411;28;20045;-77
2022/10/26 12:13:19;;;;;;;7.85;4.47;;;;;;;;;;5076440;28;20028;-79
2022/10/26 12:16:20;;;;;;;7.57;4.85;;;;;;;;;;5081562;28;20044;-80
2022/10/26 12:19:17;;;;;;;8.65;4.80;;;;;;;;;;5079479;28;20383;-79
2022/10/26 12:22:03;;;;;;;12.77;4.72;;;;;;;;;;5070074;28;20029;-80
2022/10/26 12:25:05;;;;;;;8.32;4.93;;;;;;;;;;5061025;28;20044;-78
2022/10/26 12:27:53;;;;;;;9.77;5.30;;;;;;;;;;5072865;28;20052;-78
2022/10/26 12:30:38;;;;;;;9.18;4.63;;;;;;;;;;5066217;28;20041;-78
2022/10/26 12:33:28;;;;;;;9.63;4.80;;;;;;;;;;5080652;28;20053;-78
2022/10/26 12:36:51;;;;;;;8.23;4.45;;;;;;;;;;5073546;28;20045;-79
2022/10/26 12:39:40;;;;;;;11.05;5.30;;;;;;;;;;5082884;28;20036;-78
2022/10/26 12:42:28;;;;;;;8.90;4.88;;;;;;;;;;5077982;28;20124;-78
2022/10/26 12:45:19;;;;;;;14.23;5.10;;;;;;;;;;5075978;28;20040;-79
2022/10/26 12:48:37;;;;;;;11.00;5.43;;;;;;;;;;5076363;28;20044;-79
2022/10/26 12:51:25;;;;;;;8.93;5.10;;;;;;;;;;5075241;28;20040;-77
2022/10/26 12:54:40;;;;;;;12.18;5.45;;;;;;;;;;5076241;28;20049;-78
2022/10/26 12:57:33;;;;;;;14.02;5.93;;;;;;;;;;5065599;28;20040;-78
2022/10/26 13:00:25;;;;;;;9.48;5.63;;;;;;;;;;5072048;28;20040;-78
2022/10/26 13:03:26;;;;;;;13.93;5.90;;;;;;;;;;5062650;28;20041;-79
2022/10/26 13:06:44;;;;;;;13.48;6.20;;;;;;;;;;5062403;28;20045;-79
2022/10/26 13:09:32;;;;;;;13.85;5.30;;;;;;;;;;5082392;28;20044;-78
2022/10/26 13:12:17;;;;;;;11.77;5.13;;;;;;;;;;5082289;28;20467;-78
2022/10/26 13:15:16;;;;;;;9.27;5.03;;;;;;;;;;5056908;28;20044;-79
2022/10/26 13:18:15;;;;;;;12.13;5.03;;;;;;;;;;5078406;28;20040;-78
2022/10/26 13:21:12;;;;;;;10.65;5.63;;;;;;;;;;5080028;28;20052;-78
2022/10/26 13:24:04;;;;;;;18.08;6.40;;;;;;;;;;5081255;28;20037;-78
2022/10/26 13:27:05;;;;;;;463.70;401.58;;;;;;;;;;5073713;28;20033;-78
2022/10/26 13:30:02;;;;;;;20.60;9.70;;;;;;;;;;5074167;28;20483;-78
2022/10/26 13:32:55;;;;;;;8.25;5.13;;;;;;;;;;5079904;28;20040;-78
2022/10/26 13:35:42;;;;;;;13.55;6.30;;;;;;;;;;5062229;28;20037;-77
2022/10/26 13:38:31;;;;;;;16.65;11.48;;;;;;;;;;5076399;28;20041;-79
2022/10/26 13:41:29;;;;;;;17.10;6.32;;;;;;;;;;5080554;28;20040;-78
2022/10/26 13:44:22;;;;;;;11.93;5.03;;;;;;;;;;5082066;28;20036;-78
2022/10/26 13:47:14;;;;;;;8.65;4.50;;;;;;;;;;5073824;28;20046;-77
2022/10/26 13:50:05;;;;;;;5.90;3.58;;;;;;;;;;5054818;28;20045;-78
2022/10/26 13:52:55;;;;;;;6.47;2.90;;;;;;;;;;5064205;28;20468;-77
2022/10/26 13:55:53;;;;;;;7.03;3.47;;;;;;;;;;5064854;28;20040;-78
2022/10/26 13:58:49;;;;;;;5.80;3.38;;;;;;;;;;5082070;28;20460;-79
2022/10/26 14:01:35;;;;;;;6.68;3.30;;;;;;;;;;5081700;28;20044;-80
2022/10/26 14:04:27;;;;;;;7.05;3.30;;;;;;;;;;5075361;28;20067;-78
2022/10/26 14:07:22;;;;;;;6.00;3.30;;;;;;;;;;5081386;28;20036;-78
2022/10/26 14:10:28;;;;;;;4.60;2.90;;;;;;;;;;5082146;28;20036;-77
2022/10/26 14:13:16;;;;;;;4.97;2.58;;;;;;;;;;5081304;28;20049;-77
2022/10/26 14:16:06;;;;;;;6.47;3.45;;;;;;;;;;5081176;28;20044;-77
2022/10/26 14:18:52;;;;;;;5.93;3.13;;;;;;;;;;5080934;28;20044;-77
2022/10/26 14:21:39;;;;;;;4.45;2.60;;;;;;;;;;5081278;28;20459;-77
2022/10/26 14:24:29;;;;;;;6.85;3.15;;;;;;;;;;5080840;28;20040;-77
2022/10/26 14:27:19;;;;;;;7.75;3.00;;;;;;;;;;5083572;28;20051;-77
2022/10/26 14:30:30;;;;;;;8.20;2.65;;;;;;;;;;5101095;28;20043;-78
2022/10/26 14:33:18;;;;;;;6.68;2.83;;;;;;;;;;5061027;28;20044;-76
2022/10/26 14:36:04;;;;;;;8.55;2.67;;;;;;;;;;5060546;28;20459;-77
2022/10/26 14:38:56;;;;;;;8.32;3.30;;;;;;;;;;5066322;28;20044;-76
2022/10/26 14:41:42;;;;;;;8.30;4.00;;;;;;;;;;5081066;28;20040;-78
2022/10/26 14:44:28;;;;;;;17.45;6.00;;;;;;;;;;5073861;28;20048;-78
2022/10/26 14:47:26;;;;;;;14.02;5.57;;;;;;;;;;5074761;28;20036;-78
2022/10/26 14:50:20;;;;;;;10.63;4.63;;;;;;;;;;5074914;28;20036;-78
2022/10/26 14:53:17;;;;;;;8.77;3.45;;;;;;;;;;5072503;28;20044;-78
2022/10/26 14:56:04;;;;;;;5.78;2.90;;;;;;;;;;5073011;28;20032;-81
2022/10/26 14:58:51;;;;;;;7.93;3.10;;;;;;;;;;5069822;28;20048;-79
2022/10/26 15:02:15;;;;;;;7.57;3.80;;;;;;;;;;5072746;28;20040;-79
2022/10/26 15:05:22;;;;;;;7.97;3.80;;;;;;;;;;5071785;28;20375;-79
2022/10/26 15:08:59;;;;;;;11.82;4.50;;;;;;;;;;5077925;28;20040;-80
2022/10/26 15:11:43;;;;;;;25.55;4.38;;;;;;;;;;5044410;28;20036;-78
2022/10/26 15:14:29;;;;;;;16.98;4.25;;;;;;;;;;5065754;28;20044;-79
2022/10/26 15:17:26;;;;;;;17.35;4.00;;;;;;;;;;5078382;28;20044;-79
2022/10/26 15:20:26;;;;;;;18.80;4.90;;;;;;;;;;5079170;28;20056;-77
2022/10/26 15:23:13;;;;;;;9.35;4.50;;;;;;;;;;5080702;28;20044;-77
2022/10/26 15:26:01;;;;;;;26.85;10.10;;;;;;;;;;5077584;28;20044;-78
2022/10/26 15:28:48;;;;;;;25.33;10.88;;;;;;;;;;5073994;28;20041;-78
2022/10/26 15:31:34;;;;;;;21.48;10.15;;;;;;;;;;5073063;28;20475;-78
2022/10/26 15:34:22;;;;;;;20.27;9.38;;;;;;;;;;5073084;28;20380;-80
2022/10/26 15:37:07;;;;;;;18.40;10.27;;;;;;;;;;5081028;28;20037;-78
2022/10/26 15:39:58;;;;;;;21.25;9.43;;;;;;;;;;5073279;28;20036;-78
2022/10/26 15:42:46;;;;;;;16.50;9.05;;;;;;;;;;5080044;28;20036;-78
2022/10/26 15:45:35;;;;;;;21.60;7.80;;;;;;;;;;5081120;28;20045;-79
2022/10/26 15:48:28;;;;;;;25.92;12.35;;;;;;;;;;5084360;28;20040;-79
2022/10/26 15:51:14;;;;;;;38.85;19.50;;;;;;;;;;5093402;28;20390;-79
2022/10/26 15:54:03;;;;;;;37.28;20.05;;;;;;;;;;5092811;28;20056;-79
2022/10/26 15:56:49;;;;;;;35.30;18.10;;;;;;;;;;5099521;28;20043;-78
2022/10/26 15:59:34;;;;;;;25.05;12.27;;;;;;;;;;5099226;28;20044;-79
2022/10/26 16:02:20;;;;;;;24.38;13.55;;;;;;;;;;5099718;28;20040;-79
2022/10/26 16:05:05;;;;;;;19.70;11.38;;;;;;;;;;5080775;28;20044;-78
2022/10/26 16:07:50;;;;;;;26.15;11.90;;;;;;;;;;5078075;28;20059;-78
2022/10/26 16:10:36;;;;;;;46.67;18.75;;;;;;;;;;5070644;28;20044;-79
2022/10/26 16:13:22;;;;;;;41.17;20.70;;;;;;;;;;5076410;28;20033;-77
2022/10/26 16:16:16;;;;;;;44.25;21.65;;;;;;;;;;5083476;28;20375;-79
2022/10/26 16:19:02;;;;;;;92.50;38.35;;;;;;;;;;5076872;28;20380;-78
2022/10/26 16:21:50;;;;;;;54.15;27.40;;;;;;;;;;5085370;28;20040;-79
2022/10/26 16:24:35;;;;;;;53.03;29.58;;;;;;;;;;5076205;28;20052;-78
2022/10/26 16:27:20;;;;;;;49.20;28.55;;;;;;;;;;5076845;28;20048;-78
2022/10/26 16:30:07;;;;;;;57.33;33.25;;;;;;;;;;5076150;28;20044;-78
2022/10/26 16:32:51;;;;;;;58.42;32.80;;;;;;;;;;5071258;28;20053;-78
2022/10/26 16:35:36;;;;;;;60.22;32.80;;;;;;;;;;5074132;28;20040;-79
2022/10/26 16:38:22;;;;;;;90.90;44.55;;;;;;;;;;5076731;28;20467;-78
2022/10/26 16:41:12;;;;;;;102.00;48.90;;;;;;;;;;5075632;28;20041;-79
2022/10/26 16:43:58;;;;;;;116.15;53.92;;;;;;;;;;5084169;28;20036;-80